Washington, District of Columbia
Traffic Map
Current Weather Conditions
Washington, District of Columbia
Broken Clouds
Broken Clouds
41°
Feels Like: 35°
Wind Chill: 35° Ceiling: 4100
Heat Index: 41° Visibility: 10mi
Dew Point: 21° Wind: 10mph
Humidity: 45% Direction: 320° (NW)
Pressure: 30.17in Gusts: 22mph
Raw Report DataKDCA 181652Z 32009G19KT 270V360 10SM BKN041 BKN250 05/M06 A3017 RMK AO2 SLP215 T00501061
Traffic Incident Summary
Active as of:
Severity:
Category:
InformationThere was an issue retrieving the traffic information for this location. Please try a different location or try again shortly.
Advertisements
Track Severe Weather on mobile